Time;durP1;ratioP1;P1;durP2;ratioP2;P2;SDS_P1;SDS_P2;PMS_P1;PMS_P2;Temp;Humidity;BMP_temperature;BMP_pressure;BME280_temperature;BME280_humidity;BME280_pressure;Samples;Min_cycle;Max_cycle;Signal;HPM_P1;HPM_P2
2022/05/11 00:01:45;;;;;;;;;;;;;;;;;;5092120;27;19921;-81
2022/05/11 00:04:11;;;;;;;;;;;;;;;;;;5110703;27;19981;-82
2022/05/11 00:06:37;;;;;;;;;;;;;;;;;;5090750;27;20353;-81
2022/05/11 00:09:03;;;;;;;;;;;;;;;;;;5098125;27;20334;-81
2022/05/11 00:11:29;;;;;;;;;;;;;;;;;;5112526;27;19949;-81
2022/05/11 00:13:55;;;;;;;;;;;;;;;;;;5105764;27;19923;-81
2022/05/11 00:16:21;;;;;;;;;;;;;;;;;;5112657;27;19915;-81
2022/05/11 00:18:47;;;;;;;;;;;;;;;;;;5111141;27;19915;-79
2022/05/11 00:21:13;;;;;;;;;;;;;;;;;;5112774;27;19938;-78
2022/05/11 00:23:39;;;;;;;;;;;;;;;;;;5113281;27;19928;-79
2022/05/11 00:26:05;;;;;;;;;;;;;;;;;;5101670;28;19934;-79
2022/05/11 00:28:31;;;;;;;;;;;;;;;;;;5103169;27;19958;-79
2022/05/11 00:30:57;;;;;;;;;;;;;;;;;;5113251;27;20034;-79
2022/05/11 00:33:23;;;;;;;;;;;;;;;;;;5113822;27;19915;-79
2022/05/11 00:35:49;;;;;;;;;;;;;;;;;;5086041;28;19947;-79
2022/05/11 00:38:15;;;;;;;;;;;;;;;;;;5091401;28;19919;-79
2022/05/11 00:40:41;;;;;;;;;;;;;;;;;;5109910;27;19922;-79
2022/05/11 00:43:07;;;;;;;;;;;;;;;;;;5107940;27;19975;-78
2022/05/11 00:45:33;;;;;;;;;;;;;;;;;;5131870;27;19916;-78
2022/05/11 00:47:59;;;;;;;;;;;;;;;;;;5113169;27;19930;-78
2022/05/11 00:50:25;;;;;;;;;;;;;;;;;;5107411;27;19938;-79
2022/05/11 00:52:51;;;;;;;;;;;;;;;;;;5105914;27;20306;-78
2022/05/11 00:55:17;;;;;;;;;;;;;;;;;;5111273;27;19997;-78
2022/05/11 00:57:43;;;;;;;;;;;;;;;;;;5095701;27;20014;-78
2022/05/11 01:00:10;;;;;;;;;;;;;;;;;;5101318;28;19920;-78
2022/05/11 01:02:36;;;;;;;;;;;;;;;;;;5107288;27;19915;-78
2022/05/11 01:05:02;;;;;;;;;;;;;;;;;;5109460;27;19916;-78
2022/05/11 01:07:28;;;;;;;;;;;;;;;;;;5130640;27;19915;-79
2022/05/11 01:09:54;;;;;;;;;;;;;;;;;;5111722;27;19939;-79
2022/05/11 01:12:20;;;;;;;;;;;;;;;;;;5114356;27;20350;-79
2022/05/11 01:14:46;;;;;;;;;;;;;;;;;;5112954;27;20400;-78
2022/05/11 01:17:12;;;;;;;;;;;;;;;;;;5111024;27;19976;-78
2022/05/11 01:19:38;;;;;;;;;;;;;;;;;;5096520;27;19915;-78
2022/05/11 01:22:04;;;;;;;;;;;;;;;;;;5083018;28;19963;-78
2022/05/11 01:24:30;;;;;;;;;;;;;;;;;;5097169;28;19915;-79
2022/05/11 01:26:56;;;;;;;;;;;;;;;;;;5095433;27;19958;-78
2022/05/11 01:29:22;;;;;;;;;;;;;;;;;;5113440;28;19915;-78
2022/05/11 01:31:48;;;;;;;;;;;;;;;;;;5093347;28;19916;-79
2022/05/11 01:34:14;;;;;;;;;;;;;;;;;;5113000;28;19916;-78
2022/05/11 01:36:40;;;;;;;;;;;;;;;;;;5113356;27;19998;-78
2022/05/11 01:39:06;;;;;;;;;;;;;;;;;;5111035;28;19922;-79
2022/05/11 01:41:32;;;;;;;;;;;;;;;;;;5111656;28;19916;-78
2022/05/11 01:43:58;;;;;;;;;;;;;;;;;;5107520;28;19951;-78
2022/05/11 01:46:24;;;;;;;;;;;;;;;;;;5110447;28;19939;-79
2022/05/11 01:48:50;;;;;;;;;;;;;;;;;;5099725;28;19961;-79
2022/05/11 01:51:16;;;;;;;;;;;;;;;;;;5113395;28;19916;-79
2022/05/11 01:53:42;;;;;;;;;;;;;;;;;;5083685;28;19934;-79
2022/05/11 01:56:09;;;;;;;;;;;;;;;;;;5108267;28;20388;-79
2022/05/11 01:58:35;;;;;;;;;;;;;;;;;;5109314;28;19923;-78
2022/05/11 02:01:01;;;;;;;;;;;;;;;;;;5111139;28;19916;-78
2022/05/11 02:03:27;;;;;;;;;;;;;;;;;;5112957;28;19915;-79
2022/05/11 02:08:37;;;;;;;;;;;;;;;;;;5112851;27;19931;-79
2022/05/11 02:11:03;;;;;;;;;;;;;;;;;;5135944;27;19916;-78
2022/05/11 02:13:29;;;;;;;;;;;;;;;;;;5134291;27;20003;-78
2022/05/11 02:15:55;;;;;;;;;;;;;;;;;;5094311;28;19923;-78
2022/05/11 02:18:21;;;;;;;;;;;;;;;;;;5096529;27;20342;-78
2022/05/11 02:20:47;;;;;;;;;;;;;;;;;;5119189;27;19915;-78
2022/05/11 02:23:14;;;;;;;;;;;;;;;;;;5111081;27;19984;-79
2022/05/11 02:25:39;;;;;;;;;;;;;;;;;;5114192;27;19919;-79
2022/05/11 02:28:05;;;;;;;;;;;;;;;;;;5101151;27;20394;-78
2022/05/11 02:30:32;;;;;;;;;;;;;;;;;;5113002;27;20351;-78
2022/05/11 02:32:58;;;;;;;;;;;;;;;;;;5099269;27;19971;-78
2022/05/11 02:35:24;;;;;;;;;;;;;;;;;;5112383;27;19915;-79
2022/05/11 02:37:50;;;;;;;;;;;;;;;;;;5111704;27;19922;-79
2022/05/11 02:40:16;;;;;;;;;;;;;;;;;;5116386;27;20099;-79
2022/05/11 02:42:42;;;;;;;;;;;;;;;;;;5115525;27;19927;-79
2022/05/11 02:45:08;;;;;;;;;;;;;;;;;;5133515;27;19927;-79
2022/05/11 02:47:34;;;;;;;;;;;;;;;;;;5116076;27;19938;-79
2022/05/11 02:50:03;;;;;;;;;;;;;;;;;;5093383;27;20257;-79
2022/05/11 02:52:29;;;;;;;;;;;;;;;;;;5117034;27;20713;-79
2022/05/11 02:54:55;;;;;;;;;;;;;;;;;;5113789;27;19935;-79
2022/05/11 02:57:21;;;;;;;;;;;;;;;;;;5095873;27;19927;-79
2022/05/11 02:59:49;;;;;;;;;;;;;;;;;;5091569;28;20327;-79
2022/05/11 03:02:15;;;;;;;;;;;;;;;;;;5088130;28;20312;-79
2022/05/11 03:04:40;;;;;;;;;;;;;;;;;;5122955;27;19921;-79
2022/05/11 03:07:06;;;;;;;;;;;;;;;;;;5116354;27;19922;-79
2022/05/11 03:09:32;;;;;;;;;;;;;;;;;;5115756;27;20261;-80
2022/05/11 03:11:58;;;;;;;;;;;;;;;;;;5126981;27;20463;-79
2022/05/11 03:14:24;;;;;;;;;;;;;;;;;;5106520;27;20335;-79
2022/05/11 03:16:50;;;;;;;;;;;;;;;;;;5115567;27;19964;-79
2022/05/11 03:19:16;;;;;;;;;;;;;;;;;;5116302;27;19994;-79
2022/05/11 03:21:42;;;;;;;;;;;;;;;;;;5110209;28;19934;-79
2022/05/11 03:24:08;;;;;;;;;;;;;;;;;;5110714;28;19960;-79
2022/05/11 03:26:35;;;;;;;;;;;;;;;;;;5110954;28;19916;-79
2022/05/11 03:29:02;;;;;;;;;;;;;;;;;;5091425;28;20316;-79
2022/05/11 03:31:28;;;;;;;;;;;;;;;;;;5087176;28;20343;-78
2022/05/11 03:36:40;;;;;;;;;;;;;;;;;;5110671;28;20274;-79
2022/05/11 03:39:06;;;;;;;;;;;;;;;;;;5094914;28;19948;-79
2022/05/11 03:41:32;;;;;;;;;;;;;;;;;;5109150;28;19920;-79
2022/05/11 03:43:58;;;;;;;;;;;;;;;;;;5126275;27;19916;-79
2022/05/11 03:46:24;;;;;;;;;;;;;;;;;;5109910;28;19967;-79
2022/05/11 03:48:50;;;;;;;;;;;;;;;;;;5111806;28;19922;-79
2022/05/11 03:51:15;;;;;;;;;;;;;;;;;;5111840;28;19920;-79
2022/05/11 03:53:41;;;;;;;;;;;;;;;;;;5094352;28;19916;-80
2022/05/11 03:56:07;;;;;;;;;;;;;;;;;;5090445;28;19920;-79
2022/05/11 03:58:33;;;;;;;;;;;;;;;;;;5109123;28;19916;-79
2022/05/11 04:00:59;;;;;;;;;;;;;;;;;;5089565;28;19923;-79
2022/05/11 04:03:25;;;;;;;;;;;;;;;;;;5109348;28;19919;-79
2022/05/11 04:05:51;;;;;;;;;;;;;;;;;;5112396;28;19916;-80
2022/05/11 04:08:17;;;;;;;;;;;;;;;;;;5091014;28;19939;-79
2022/05/11 04:10:43;;;;;;;;;;;;;;;;;;5113534;28;19919;-80
2022/05/11 04:13:09;;;;;;;;;;;;;;;;;;5110887;28;20019;-79
2022/05/11 04:15:35;;;;;;;;;;;;;;;;;;5104961;28;20363;-79
2022/05/11 04:18:01;;;;;;;;;;;;;;;;;;5106900;28;19916;-79
2022/05/11 04:20:28;;;;;;;;;;;;;;;;;;5110976;28;19916;-79
2022/05/11 04:22:55;;;;;;;;;;;;;;;;;;5115698;27;19922;-79
2022/05/11 04:25:23;;;;;;;;;;;;;;;;;;5103175;28;19924;-78
2022/05/11 04:27:49;;;;;;;;;;;;;;;;;;5103349;28;19938;-78
2022/05/11 04:30:15;;;;;;;;;;;;;;;;;;5110941;28;19919;-79
2022/05/11 04:32:41;;;;;;;;;;;;;;;;;;5109893;28;19920;-80
2022/05/11 04:35:07;;;;;;;;;;;;;;;;;;5110858;28;20463;-79
2022/05/11 04:37:33;;;;;;;;;;;;;;;;;;5103469;28;19923;-79
2022/05/11 04:39:59;;;;;;;;;;;;;;;;;;5121608;27;19920;-79
2022/05/11 04:42:25;;;;;;;;;;;;;;;;;;5102335;28;20001;-79
2022/05/11 04:44:51;;;;;;;;;;;;;;;;;;5098162;28;19954;-79
2022/05/11 04:47:17;;;;;;;;;;;;;;;;;;5101146;27;19971;-80
2022/05/11 04:49:43;;;;;;;;;;;;;;;;;;5107364;28;20255;-80
2022/05/11 04:52:09;;;;;;;;;;;;;;;;;;5107675;28;19920;-79
2022/05/11 04:54:36;;;;;;;;;;;;;;;;;;5103808;28;20386;-79
2022/05/11 04:57:02;;;;;;;;;;;;;;;;;;5110504;28;19916;-80
2022/05/11 04:59:28;;;;;;;;;;;;;;;;;;5108476;28;20113;-78
2022/05/11 05:01:54;;;;;;;;;;;;;;;;;;5109980;28;19922;-79
2022/05/11 05:04:20;;;;;;;;;;;;;;;;;;5089084;28;19916;-79
2022/05/11 05:06:46;;;;;;;;;;;;;;;;;;5119367;27;19955;-79
2022/05/11 05:09:12;;;;;;;;;;;;;;;;;;5092068;28;19938;-79
2022/05/11 05:11:38;;;;;;;;;;;;;;;;;;5097221;28;20006;-79
2022/05/11 05:14:06;;;;;;;;;;;;;;;;;;5084365;28;19924;-79
2022/05/11 05:16:32;;;;;;;;;;;;;;;;;;5108210;28;19923;-80
2022/05/11 05:18:58;;;;;;;;;;;;;;;;;;5110778;28;19927;-80
2022/05/11 05:21:24;;;;;;;;;;;;;;;;;;5089652;28;19956;-80
2022/05/11 05:23:50;;;;;;;;;;;;;;;;;;5106619;28;19916;-80
2022/05/11 05:26:16;;;;;;;;;;;;;;;;;;5077028;28;19922;-80
2022/05/11 05:31:31;;;;;;;;;;;;;;;;;;5076278;28;19916;-80
2022/05/11 05:34:00;;;;;;;;;;;;;;;;;;5092566;28;20006;-79
2022/05/11 05:36:27;;;;;;;;;;;;;;;;;;5093187;28;19938;-80
2022/05/11 05:38:53;;;;;;;;;;;;;;;;;;5093725;28;20010;-80
2022/05/11 05:41:19;;;;;;;;;;;;;;;;;;5104230;28;19990;-79
2022/05/11 05:43:45;;;;;;;;;;;;;;;;;;5117921;27;19927;-79
2022/05/11 05:46:11;;;;;;;;;;;;;;;;;;5107076;28;19916;-80
2022/05/11 05:48:37;;;;;;;;;;;;;;;;;;5093452;28;19926;-80
2022/05/11 05:51:03;;;;;;;;;;;;;;;;;;5094161;28;20281;-80
2022/05/11 05:53:29;;;;;;;;;;;;;;;;;;5092360;28;19976;-79
2022/05/11 05:55:55;;;;;;;;;;;;;;;;;;5107330;28;20014;-79
2022/05/11 05:58:21;;;;;;;;;;;;;;;;;;5109961;28;19927;-79
2022/05/11 06:00:47;;;;;;;;;;;;;;;;;;5098111;28;19942;-79
2022/05/11 06:03:13;;;;;;;;;;;;;;;;;;5109587;28;19916;-79
2022/05/11 06:05:39;;;;;;;;;;;;;;;;;;5108672;28;19922;-80
2022/05/11 06:08:07;;;;;;;;;;;;;;;;;;5107570;28;20363;-80
2022/05/11 06:10:35;;;;;;;;;;;;;;;;;;5088476;28;20018;-80
2022/05/11 06:13:01;;;;;;;;;;;;;;;;;;5110174;28;19938;-80
2022/05/11 06:15:27;;;;;;;;;;;;;;;;;;5097527;28;19916;-80
2022/05/11 06:17:54;;;;;;;;;;;;;;;;;;5106141;28;20373;-79
2022/05/11 06:20:19;;;;;;;;;;;;;;;;;;5082310;28;20315;-80
2022/05/11 06:22:45;;;;;;;;;;;;;;;;;;5095534;28;19919;-80
2022/05/11 06:25:11;;;;;;;;;;;;;;;;;;5110631;28;19941;-80
2022/05/11 06:27:37;;;;;;;;;;;;;;;;;;5098114;28;19920;-80
2022/05/11 06:30:03;;;;;;;;;;;;;;;;;;5110321;28;19926;-80
2022/05/11 06:32:29;;;;;;;;;;;;;;;;;;5112025;28;19923;-80
2022/05/11 06:34:55;;;;;;;;;;;;;;;;;;5093020;28;19938;-79
2022/05/11 06:37:21;;;;;;;;;;;;;;;;;;5112545;28;20386;-80
2022/05/11 06:39:48;;;;;;;;;;;;;;;;;;5109045;28;19915;-80
2022/05/11 06:42:14;;;;;;;;;;;;;;;;;;5106583;28;19968;-79
2022/05/11 06:44:40;;;;;;;;;;;;;;;;;;5122448;28;20367;-79
2022/05/11 06:47:06;;;;;;;;;;;;;;;;;;5109378;28;20265;-80
2022/05/11 06:49:32;;;;;;;;;;;;;;;;;;5109997;28;19915;-81
2022/05/11 06:51:58;;;;;;;;;;;;;;;;;;5107841;28;19922;-80
2022/05/11 06:59:53;;;;;;;;;;;;;;;;;;5107920;27;20453;-77
2022/05/11 07:02:19;;;;;;;;;;;;;;;;;;5106009;27;19916;-79
2022/05/11 07:04:45;;;;;;;;;;;;;;;;;;5131538;27;19949;-80
2022/05/11 07:07:11;;;;;;;;;;;;;;;;;;5110087;27;20339;-80
2022/05/11 07:09:39;;;;;;;;;;;;;;;;;;5098210;27;19994;-79
2022/05/11 07:12:17;;;;;;;;;;;;;;;;;;5130225;27;19927;-80
2022/05/11 07:14:43;;;;;;;;;;;;;;;;;;5133384;27;19919;-80
2022/05/11 07:17:09;;;;;;;;;;;;;;;;;;5114516;27;20039;-79
2022/05/11 07:19:36;;;;;;;;;;;;;;;;;;5110180;27;21649;-80
2022/05/11 07:22:02;;;;;;;;;;;;;;;;;;5131586;27;19922;-79
2022/05/11 07:24:28;;;;;;;;;;;;;;;;;;5113989;27;19915;-80
2022/05/11 07:26:54;;;;;;;;;;;;;;;;;;5113651;27;19950;-79
2022/05/11 07:29:21;;;;;;;;;;;;;;;;;;5111287;27;19927;-79
2022/05/11 07:31:47;;;;;;;;;;;;;;;;;;5093174;27;19932;-81
2022/05/11 07:34:13;;;;;;;;;;;;;;;;;;5127708;27;19960;-81
2022/05/11 07:36:39;;;;;;;;;;;;;;;;;;5094843;27;19970;-81
2022/05/11 07:39:05;;;;;;;;;;;;;;;;;;5096323;27;19959;-81
2022/05/11 07:41:31;;;;;;;;;;;;;;;;;;5111481;27;19923;-82
2022/05/11 07:43:57;;;;;;;;;;;;;;;;;;5109824;27;19927;-80
2022/05/11 07:46:24;;;;;;;;;;;;;;;;;;5111904;27;20254;-80
2022/05/11 07:48:50;;;;;;;;;;;;;;;;;;5112301;27;19927;-80
2022/05/11 07:51:16;;;;;;;;;;;;;;;;;;5094766;27;19965;-80
2022/05/11 07:53:44;;;;;;;;;;;;;;;;;;5113938;27;19963;-78
2022/05/11 08:01:39;;;;;;;;;;;;;;;;;;5109778;27;19919;-83
2022/05/11 08:04:05;;;;;;;;;;;;;;;;;;5113189;27;19978;-77
2022/05/11 08:06:31;;;;;;;;;;;;;;;;;;5091677;27;19951;-79
2022/05/11 08:08:57;;;;;;;;;;;;;;;;;;5109708;27;19934;-80
2022/05/11 08:11:23;;;;;;;;;;;;;;;;;;5111376;27;19918;-80
2022/05/11 08:13:49;;;;;;;;;;;;;;;;;;5110551;27;19915;-80
2022/05/11 08:16:15;;;;;;;;;;;;;;;;;;5102117;27;20171;-78
2022/05/11 08:18:41;;;;;;;;;;;;;;;;;;5107912;27;20240;-77
2022/05/11 08:21:09;;;;;;;;;;;;;;;;;;5105608;27;19940;-78
2022/05/11 08:23:35;;;;;;;;;;;;;;;;;;5113241;27;19922;-79
2022/05/11 08:26:01;;;;;;;;;;;;;;;;;;5112891;27;19915;-79
2022/05/11 08:28:27;;;;;;;;;;;;;;;;;;5129024;27;19915;-79
2022/05/11 08:33:38;;;;;;;;;;;;;;;;;;5110676;27;19919;-78
2022/05/11 08:36:04;;;;;;;;;;;;;;;;;;5129850;27;19919;-78
2022/05/11 08:38:30;;;;;;;;;;;;;;;;;;5111171;27;19923;-79
2022/05/11 08:40:56;;;;;;;;;;;;;;;;;;5094300;27;19924;-78
2022/05/11 08:43:22;;;;;;;;;;;;;;;;;;5108488;27;19996;-78
2022/05/11 08:45:48;;;;;;;;;;;;;;;;;;5109220;27;20030;-77
2022/05/11 08:48:14;;;;;;;;;;;;;;;;;;5111866;27;19924;-78
2022/05/11 08:50:40;;;;;;;;;;;;;;;;;;5110013;27;19919;-82
2022/05/11 08:53:06;;;;;;;;;;;;;;;;;;5132153;27;20011;-76
2022/05/11 08:55:32;;;;;;;;;;;;;;;;;;5112663;27;19927;-76
2022/05/11 08:57:58;;;;;;;;;;;;;;;;;;5129376;27;19960;-77
2022/05/11 09:00:24;;;;;;;;;;;;;;;;;;5109679;27;20273;-77
2022/05/11 09:02:50;;;;;;;;;;;;;;;;;;5112883;27;19923;-78
2022/05/11 09:05:16;;;;;;;;;;;;;;;;;;5129178;27;20346;-77
2022/05/11 09:07:42;;;;;;;;;;;;;;;;;;5131116;27;19915;-77
2022/05/11 09:10:08;;;;;;;;;;;;;;;;;;5130716;27;19976;-78
2022/05/11 09:12:34;;;;;;;;;;;;;;;;;;5112585;27;19919;-78
2022/05/11 09:15:00;;;;;;;;;;;;;;;;;;5131541;27;19923;-77
2022/05/11 09:17:26;;;;;;;;;;;;;;;;;;5129503;27;19919;-79
2022/05/11 09:19:52;;;;;;;;;;;;;;;;;;5093531;27;19920;-78
2022/05/11 09:22:18;;;;;;;;;;;;;;;;;;5107869;27;20809;-81
2022/05/11 09:24:44;;;;;;;;;;;;;;;;;;5119854;27;19923;-81
2022/05/11 09:27:10;;;;;;;;;;;;;;;;;;5114399;28;19916;-80
2022/05/11 09:29:37;;;;;;;;;;;;;;;;;;5110731;27;19919;-77
2022/05/11 09:32:03;;;;;;;;;;;;;;;;;;5129578;27;20034;-76
2022/05/11 09:34:29;;;;;;;;;;;;;;;;;;5120552;27;20452;-76
2022/05/11 09:36:55;;;;;;;;;;;;;;;;;;5121839;27;20014;-76
2022/05/11 09:39:21;;;;;;;;;;;;;;;;;;5126281;27;19915;-76
2022/05/11 09:41:51;;;;;;;;;;;;;;;;;;5120236;28;19919;-79
2022/05/11 09:44:17;;;;;;;;;;;;;;;;;;5084526;28;19924;-77
2022/05/11 09:46:43;;;;;;;;;;;;;;;;;;5121015;28;20006;-76
2022/05/11 09:49:09;;;;;;;;;;;;;;;;;;5122714;28;19927;-77
2022/05/11 09:51:35;;;;;;;;;;;;;;;;;;5105407;28;19923;-77
2022/05/11 09:54:02;;;;;;;;;;;;;;;;;;5106250;28;20026;-77
2022/05/11 09:56:28;;;;;;;;;;;;;;;;;;5129928;28;19926;-77
2022/05/11 09:58:54;;;;;;;;;;;;;;;;;;5130135;28;19915;-76
2022/05/11 10:01:20;;;;;;;;;;;;;;;;;;5104281;28;19955;-77
2022/05/11 10:03:46;;;;;;;;;;;;;;;;;;5124683;28;19954;-78
2022/05/11 10:06:12;;;;;;;;;;;;;;;;;;5124104;28;20348;-77
2022/05/11 10:08:38;;;;;;;;;;;;;;;;;;5122969;28;19999;-78
2022/05/11 10:11:04;;;;;;;;;;;;;;;;;;5102734;28;19929;-79
2022/05/11 10:13:30;;;;;;;;;;;;;;;;;;5128092;28;20329;-79
2022/05/11 10:24:10;;;;;;;;;;;;;;;;;;5112831;28;19922;-79
2022/05/11 10:26:36;;;;;;;;;;;;;;;;;;5109742;28;19927;-80
2022/05/11 10:29:03;;;;;;;;;;;;;;;;;;5129988;27;19916;-78
2022/05/11 10:31:30;;;;;;;;;;;;;;;;;;5112415;27;19919;-78
2022/05/11 10:33:57;;;;;;;;;;;;;;;;;;5107321;27;20677;-79
2022/05/11 10:36:24;;;;;;;;;;;;;;;;;;5110492;27;20249;-80
2022/05/11 10:38:50;;;;;;;;;;;;;;;;;;5098085;27;19915;-79
2022/05/11 10:41:16;;;;;;;;;;;;;;;;;;5114487;27;19919;-79
2022/05/11 10:43:42;;;;;;;;;;;;;;;;;;5115438;27;20014;-81
2022/05/11 10:46:08;;;;;;;;;;;;;;;;;;5132697;27;20315;-83
2022/05/11 10:48:35;;;;;;;;;;;;;;;;;;5129580;27;19915;-78
2022/05/11 10:51:01;;;;;;;;;;;;;;;;;;5118766;27;19986;-86
2022/05/11 10:53:27;;;;;;;;;;;;;;;;;;5117004;27;20300;-82
2022/05/11 10:55:53;;;;;;;;;;;;;;;;;;5115822;27;19919;-79
2022/05/11 10:58:19;;;;;;;;;;;;;;;;;;5115174;27;19915;-78
2022/05/11 11:00:45;;;;;;;;;;;;;;;;;;5112448;27;19971;-73
2022/05/11 11:03:11;;;;;;;;;;;;;;;;;;5131113;27;19922;-71
2022/05/11 11:05:37;;;;;;;;;;;;;;;;;;5132630;27;20318;-71
2022/05/11 11:08:03;;;;;;;;;;;;;;;;;;5114678;27;20247;-72
2022/05/11 11:10:29;;;;;;;;;;;;;;;;;;5112681;27;19927;-75
2022/05/11 11:12:55;;;;;;;;;;;;;;;;;;5113198;27;19926;-75
2022/05/11 11:15:21;;;;;;;;;;;;;;;;;;5130995;27;19915;-76
2022/05/11 11:17:47;;;;;;;;;;;;;;;;;;5095257;27;19943;-74
2022/05/11 11:20:13;;;;;;;;;;;;;;;;;;5131917;27;19962;-73
2022/05/11 11:22:39;;;;;;;;;;;;;;;;;;5114538;27;19969;-75
2022/05/11 11:25:05;;;;;;;;;;;;;;;;;;5094343;27;20445;-72
2022/05/11 11:27:31;;;;;;;;;;;;;;;;;;5113811;27;19979;-73
2022/05/11 11:29:56;;;;;;;;;;;;;;;;;;5129707;27;19920;-73
2022/05/11 11:32:22;;;;;;;;;;;;;;;;;;5131825;27;19915;-72
2022/05/11 11:34:48;;;;;;;;;;;;;;;;;;5127815;27;19968;-74
2022/05/11 11:37:14;;;;;;;;;;;;;;;;;;5132830;27;19984;-75
2022/05/11 11:39:40;;;;;;;;;;;;;;;;;;5113551;27;19916;-77
2022/05/11 11:42:06;;;;;;;;;;;;;;;;;;5112156;27;19960;-76
2022/05/11 11:44:32;;;;;;;;;;;;;;;;;;5096247;27;20418;-75
2022/05/11 11:46:59;;;;;;;;;;;;;;;;;;5092983;27;20006;-76
2022/05/11 11:49:27;;;;;;;;;;;;;;;;;;5112673;27;19935;-76
2022/05/11 11:51:54;;;;;;;;;;;;;;;;;;5095458;27;19915;-77
2022/05/11 11:54:20;;;;;;;;;;;;;;;;;;5096825;27;19915;-76
2022/05/11 11:56:46;;;;;;;;;;;;;;;;;;5111756;27;19987;-80
2022/05/11 11:59:12;;;;;;;;;;;;;;;;;;5093529;27;19915;-77
2022/05/11 12:01:38;;;;;;;;;;;;;;;;;;5111417;27;20342;-77
2022/05/11 12:04:04;;;;;;;;;;;;;;;;;;5113625;27;19938;-74
2022/05/11 12:15:03;;;;;;;;;;;;;;;;;;5129557;27;19968;-73
2022/05/11 12:17:29;;;;;;;;;;;;;;;;;;5129419;27;20401;-74
2022/05/11 12:19:55;;;;;;;;;;;;;;;;;;5113339;27;19966;-75
2022/05/11 12:22:22;;;;;;;;;;;;;;;;;;5130907;27;19990;-75
2022/05/11 12:24:48;;;;;;;;;;;;;;;;;;5096032;27;19919;-75
2022/05/11 12:27:15;;;;;;;;;;;;;;;;;;5111236;27;19946;-74
2022/05/11 12:29:59;;;;;;;;;;;;;;;;;;5111945;27;19922;-92
2022/05/11 12:32:25;;;;;;;;;;;;;;;;;;5097040;27;19915;-83
2022/05/11 12:34:51;;;;;;;;;;;;;;;;;;5095077;27;19922;-75
2022/05/11 12:37:17;;;;;;;;;;;;;;;;;;5092081;27;19919;-77
2022/05/11 12:39:43;;;;;;;;;;;;;;;;;;5106506;27;19958;-76
2022/05/11 12:42:09;;;;;;;;;;;;;;;;;;5128659;27;19919;-75
2022/05/11 12:44:35;;;;;;;;;;;;;;;;;;5112433;27;19916;-76
2022/05/11 12:47:01;;;;;;;;;;;;;;;;;;5110535;27;20430;-75
2022/05/11 12:49:27;;;;;;;;;;;;;;;;;;5110027;27;19922;-80
2022/05/11 12:51:53;;;;;;;;;;;;;;;;;;5130019;27;19915;-79
2022/05/11 12:54:19;;;;;;;;;;;;;;;;;;5095621;27;19915;-78
2022/05/11 12:56:45;;;;;;;;;;;;;;;;;;5107538;27;19918;-75
2022/05/11 12:59:11;;;;;;;;;;;;;;;;;;5126506;27;21183;-74
2022/05/11 13:01:38;;;;;;;;;;;;;;;;;;5130539;27;19934;-75
2022/05/11 13:04:04;;;;;;;;;;;;;;;;;;5092459;27;19926;-71
2022/05/11 13:06:30;;;;;;;;;;;;;;;;;;5130999;27;20273;-75
2022/05/11 13:08:56;;;;;;;;;;;;;;;;;;5129026;27;19923;-73
2022/05/11 13:11:22;;;;;;;;;;;;;;;;;;5126597;27;19915;-73
2022/05/11 13:13:48;;;;;;;;;;;;;;;;;;5111866;27;20062;-74
2022/05/11 13:16:13;;;;;;;;;;;;;;;;;;5111957;27;20260;-74
2022/05/11 13:18:39;;;;;;;;;;;;;;;;;;5130306;27;19946;-75
2022/05/11 13:21:08;;;;;;;;;;;;;;;;;;5128031;27;20010;-73
2022/05/11 13:23:34;;;;;;;;;;;;;;;;;;5129025;27;19916;-76
2022/05/11 13:26:00;;;;;;;;;;;;;;;;;;5094930;27;19973;-78
2022/05/11 13:28:26;;;;;;;;;;;;;;;;;;5095304;27;20030;-78
2022/05/11 13:30:53;;;;;;;;;;;;;;;;;;5108659;28;19915;-77
2022/05/11 13:33:19;;;;;;;;;;;;;;;;;;5112427;27;19942;-76
2022/05/11 13:35:45;;;;;;;;;;;;;;;;;;5112433;27;20342;-78
2022/05/11 13:38:11;;;;;;;;;;;;;;;;;;5112874;28;19915;-77
2022/05/11 13:40:37;;;;;;;;;;;;;;;;;;5104971;27;19967;-74
2022/05/11 13:43:03;;;;;;;;;;;;;;;;;;5111478;28;20231;-75
2022/05/11 13:45:29;;;;;;;;;;;;;;;;;;5111660;28;19915;-77
2022/05/11 13:48:13;;;;;;;;;;;;;;;;;;5111778;28;20574;-74
2022/05/11 13:50:39;;;;;;;;;;;;;;;;;;5110459;28;19931;-76
2022/05/11 13:53:05;;;;;;;;;;;;;;;;;;5087719;28;19977;-72
2022/05/11 13:55:31;;;;;;;;;;;;;;;;;;5106654;28;19927;-75
2022/05/11 13:57:57;;;;;;;;;;;;;;;;;;5110545;28;19946;-73
2022/05/11 14:00:24;;;;;;;;;;;;;;;;;;5108034;28;19927;-74
2022/05/11 14:02:51;;;;;;;;;;;;;;;;;;5125745;28;19976;-79
2022/05/11 14:05:16;;;;;;;;;;;;;;;;;;5093861;27;19919;-76
2022/05/11 14:07:42;;;;;;;;;;;;;;;;;;5091834;27;20350;-76
2022/05/11 14:10:08;;;;;;;;;;;;;;;;;;5094685;27;20375;-74
2022/05/11 14:12:34;;;;;;;;;;;;;;;;;;5096643;27;19922;-75
2022/05/11 14:15:03;;;;;;;;;;;;;;;;;;5111393;27;19915;-76
2022/05/11 14:17:29;;;;;;;;;;;;;;;;;;5112524;27;19925;-77
2022/05/11 14:19:55;;;;;;;;;;;;;;;;;;5109331;27;19919;-77
2022/05/11 14:22:21;;;;;;;;;;;;;;;;;;5110366;27;21754;-76
2022/05/11 14:24:47;;;;;;;;;;;;;;;;;;5106948;27;19921;-76
2022/05/11 14:27:17;;;;;;;;;;;;;;;;;;5108998;27;20331;-76
2022/05/11 14:29:42;;;;;;;;;;;;;;;;;;5112620;27;19966;-77
2022/05/11 14:32:08;;;;;;;;;;;;;;;;;;5108802;27;19969;-78
2022/05/11 14:34:34;;;;;;;;;;;;;;;;;;5111205;27;19977;-78
2022/05/11 14:37:00;;;;;;;;;;;;;;;;;;5096797;27;19915;-76
2022/05/11 14:39:27;;;;;;;;;;;;;;;;;;5114125;27;19927;-83
2022/05/11 14:41:54;;;;;;;;;;;;;;;;;;5096325;27;20014;-75
2022/05/11 14:44:21;;;;;;;;;;;;;;;;;;5111594;27;19973;-76
2022/05/11 14:46:48;;;;;;;;;;;;;;;;;;5113589;27;19927;-80
2022/05/11 14:49:14;;;;;;;;;;;;;;;;;;5113258;27;19923;-77
2022/05/11 14:51:41;;;;;;;;;;;;;;;;;;5115929;27;19919;-79
2022/05/11 14:54:07;;;;;;;;;;;;;;;;;;5114969;27;19919;-77
2022/05/11 14:56:33;;;;;;;;;;;;;;;;;;5111535;27;20360;-78
2022/05/11 15:01:55;;;;;;;;;;;;;;;;;;5111402;27;19960;-78
2022/05/11 15:04:21;;;;;;;;;;;;;;;;;;5112182;27;20360;-79
2022/05/11 15:06:47;;;;;;;;;;;;;;;;;;5093042;27;19924;-78
2022/05/11 15:09:13;;;;;;;;;;;;;;;;;;5111503;27;19924;-77
2022/05/11 15:14:27;;;;;;;;;;;;;;;;;;5113937;27;19922;-77
2022/05/11 15:16:53;;;;;;;;;;;;;;;;;;5095297;27;19915;-78
2022/05/11 15:19:19;;;;;;;;;;;;;;;;;;5114828;27;20339;-75
2022/05/11 15:21:45;;;;;;;;;;;;;;;;;;5109488;28;19920;-76
2022/05/11 15:24:11;;;;;;;;;;;;;;;;;;5109720;28;19986;-77
2022/05/11 15:26:37;;;;;;;;;;;;;;;;;;5108368;28;19927;-77
2022/05/11 15:29:03;;;;;;;;;;;;;;;;;;5090880;28;19944;-76
2022/05/11 15:31:29;;;;;;;;;;;;;;;;;;5091690;28;20006;-80
2022/05/11 15:33:55;;;;;;;;;;;;;;;;;;5091403;28;19915;-78
2022/05/11 15:36:21;;;;;;;;;;;;;;;;;;5092850;28;19915;-77
2022/05/11 15:38:47;;;;;;;;;;;;;;;;;;5106142;28;20358;-78
2022/05/11 15:41:13;;;;;;;;;;;;;;;;;;5108265;28;19953;-76
2022/05/11 15:43:39;;;;;;;;;;;;;;;;;;5111354;28;19934;-76
2022/05/11 15:46:05;;;;;;;;;;;;;;;;;;5110372;28;19964;-76
2022/05/11 15:48:31;;;;;;;;;;;;;;;;;;5106822;28;20004;-76
2022/05/11 15:50:57;;;;;;;;;;;;;;;;;;5109634;28;19920;-78
2022/05/11 15:53:23;;;;;;;;;;;;;;;;;;5094324;28;20338;-77
2022/05/11 15:55:50;;;;;;;;;;;;;;;;;;5092446;28;19927;-76
2022/05/11 15:58:16;;;;;;;;;;;;;;;;;;5106958;28;20046;-76
2022/05/11 16:00:42;;;;;;;;;;;;;;;;;;5111560;28;20002;-77
2022/05/11 16:03:08;;;;;;;;;;;;;;;;;;5092580;28;19923;-78
2022/05/11 16:05:34;;;;;;;;;;;;;;;;;;5091303;28;20252;-76
2022/05/11 16:08:00;;;;;;;;;;;;;;;;;;5109330;28;19922;-76
2022/05/11 16:10:26;;;;;;;;;;;;;;;;;;5101292;28;19927;-76
2022/05/11 16:12:52;;;;;;;;;;;;;;;;;;5093039;28;19915;-76
2022/05/11 16:15:18;;;;;;;;;;;;;;;;;;5108863;28;19926;-76
2022/05/11 16:20:29;;;;;;;;;;;;;;;;;;5112210;27;19922;-77
2022/05/11 16:22:56;;;;;;;;;;;;;;;;;;5112188;27;19915;-77
2022/05/11 16:25:22;;;;;;;;;;;;;;;;;;5112836;27;19915;-76
2022/05/11 16:27:48;;;;;;;;;;;;;;;;;;5111940;27;19915;-76
2022/05/11 16:30:14;;;;;;;;;;;;;;;;;;5111460;27;19970;-76
2022/05/11 16:32:40;;;;;;;;;;;;;;;;;;5094466;27;19962;-80
2022/05/11 16:35:06;;;;;;;;;;;;;;;;;;5096286;27;19934;-80
2022/05/11 16:37:31;;;;;;;;;;;;;;;;;;5112431;27;19967;-78
2022/05/11 16:40:03;;;;;;;;;;;;;;;;;;5112030;27;19919;-81
2022/05/11 16:42:29;;;;;;;;;;;;;;;;;;5111138;27;20376;-81
2022/05/11 16:44:55;;;;;;;;;;;;;;;;;;5094558;27;19927;-77
2022/05/11 16:47:21;;;;;;;;;;;;;;;;;;5111060;27;20456;-80
2022/05/11 16:49:50;;;;;;;;;;;;;;;;;;5094183;27;20350;-78
2022/05/11 16:52:16;;;;;;;;;;;;;;;;;;5095885;27;19962;-75
2022/05/11 16:54:42;;;;;;;;;;;;;;;;;;5094782;27;19977;-78
2022/05/11 16:57:08;;;;;;;;;;;;;;;;;;5108386;27;20262;-79
2022/05/11 16:59:34;;;;;;;;;;;;;;;;;;5111769;27;19915;-78
2022/05/11 17:02:00;;;;;;;;;;;;;;;;;;5095238;27;20243;-76
2022/05/11 17:04:26;;;;;;;;;;;;;;;;;;5111513;27;19919;-78
2022/05/11 17:06:52;;;;;;;;;;;;;;;;;;5095325;27;20254;-78
2022/05/11 17:09:18;;;;;;;;;;;;;;;;;;5107276;27;19915;-84
2022/05/11 17:11:44;;;;;;;;;;;;;;;;;;5092897;27;19922;-77
2022/05/11 17:14:09;;;;;;;;;;;;;;;;;;5107316;27;19994;-76
2022/05/11 17:16:35;;;;;;;;;;;;;;;;;;5110209;27;20370;-79
2022/05/11 17:19:01;;;;;;;;;;;;;;;;;;5111068;27;20239;-78
2022/05/11 17:21:28;;;;;;;;;;;;;;;;;;5112103;27;20318;-80
2022/05/11 17:23:54;;;;;;;;;;;;;;;;;;5092612;27;19934;-77
2022/05/11 17:26:21;;;;;;;;;;;;;;;;;;5092646;27;20331;-76